Time;durP1;ratioP1;P1;durP2;ratioP2;P2;SDS_P1;SDS_P2;PMS_P1;PMS_P2;Temp;Humidity;BMP_temperature;BMP_pressure;BME280_temperature;BME280_humidity;BME280_pressure;Samples;Min_cycle;Max_cycle;Signal;HPM_P1;HPM_P2
2023/09/07 00:00:14;;;;;;;8.88;5.00;;;;;;;21.12;60.82;101420.94;848844;23;1150;-93
2023/09/07 00:00:35;;;;;;;8.40;4.90;;;;;;;21.04;60.87;101404.16;853127;23;1284;-93
2023/09/07 00:00:59;;;;;;;9.10;5.28;;;;;;;21.03;61.08;101407.72;852800;23;1294;-92
2023/09/07 00:01:20;;;;;;;7.15;5.25;;;;;;;21.03;60.87;101413.88;861245;23;1329;-92
2023/09/07 00:01:41;;;;;;;7.13;5.25;;;;;;;21.01;60.90;101410.38;852625;23;1313;-93
2023/09/07 00:02:01;;;;;;;7.47;5.17;;;;;;;20.98;61.31;101409.50;856819;23;1105;-93
2023/09/07 00:02:22;;;;;;;8.32;5.28;;;;;;;20.98;60.93;101407.75;848679;23;1354;-92
2023/09/07 00:02:43;;;;;;;7.68;4.95;;;;;;;20.94;61.00;101404.22;852920;23;1271;-92
2023/09/07 00:03:04;;;;;;;7.50;5.05;;;;;;;20.90;61.15;101401.59;848457;23;1194;-94
2023/09/07 00:03:25;;;;;;;7.47;5.15;;;;;;;20.98;61.19;101414.81;852902;23;1192;-92
2023/09/07 00:03:46;;;;;;;10.73;5.30;;;;;;;20.94;61.14;101411.28;848852;23;1181;-93
2023/09/07 00:04:06;;;;;;;10.02;5.22;;;;;;;20.91;61.32;101413.97;847514;23;1232;-93
2023/09/07 00:04:27;;;;;;;7.73;5.30;;;;;;;20.90;61.37;101409.56;857242;23;1262;-94
2023/09/07 00:04:49;;;;;;;7.00;5.53;;;;;;;20.90;61.34;101412.22;861154;23;1248;-92
2023/09/07 00:05:10;;;;;;;6.90;5.63;;;;;;;20.88;61.32;101406.91;844563;23;1283;-92
2023/09/07 00:05:31;;;;;;;7.00;5.28;;;;;;;20.92;61.47;101419.28;848795;23;1254;-93
2023/09/07 00:05:52;;;;;;;6.78;5.20;;;;;;;20.88;61.57;101408.66;848670;23;1222;-93
2023/09/07 00:06:14;;;;;;;6.47;5.10;;;;;;;20.88;61.62;101411.31;848611;23;1271;-92
2023/09/07 00:06:35;;;;;;;5.88;4.85;;;;;;;20.86;61.51;101405.13;848727;23;1455;-91
2023/09/07 00:06:56;;;;;;;6.30;4.70;;;;;;;20.87;61.61;101412.22;852620;23;1176;-93
2023/09/07 00:07:17;;;;;;;6.22;4.53;;;;;;;20.81;61.50;101398.09;852861;23;1191;-92
2023/09/07 00:07:37;;;;;;;5.80;4.45;;;;;;;20.86;61.77;101413.09;848882;23;1223;-93
2023/09/07 00:07:58;;;;;;;6.90;5.03;;;;;;;20.80;61.68;101396.34;852697;23;1234;-93
2023/09/07 00:08:20;;;;;;;9.88;5.90;;;;;;;20.79;61.51;101399.00;852482;23;1792;-93
2023/09/07 00:08:41;;;;;;;11.25;6.35;;;;;;;20.85;61.71;101411.34;852901;23;1310;-92
2023/09/07 00:09:03;;;;;;;10.80;6.05;;;;;;;20.76;61.63;101393.69;852536;23;1278;-93
2023/09/07 00:09:24;;;;;;;8.88;5.55;;;;;;;20.84;61.72;101406.94;857144;23;1295;-92
2023/09/07 00:09:45;;;;;;;11.00;5.55;;;;;;;20.78;61.69;101394.59;852924;23;1197;-93
2023/09/07 00:10:06;;;;;;;10.05;5.40;;;;;;;20.77;61.88;101400.78;852875;23;1215;-93
2023/09/07 00:10:26;;;;;;;10.65;5.25;;;;;;;20.79;61.76;101409.59;850321;23;817;-93
2023/09/07 00:10:47;;;;;;;7.30;5.40;;;;;;;20.77;61.72;101399.00;852844;23;1292;-93
2023/09/07 00:11:12;;;;;;;7.23;5.50;;;;;;;20.76;61.80;101402.53;856852;23;1130;-93
2023/09/07 00:11:32;;;;;;;8.35;5.32;;;;;;;20.77;61.87;101395.47;857147;23;1339;-93
2023/09/07 00:11:53;;;;;;;8.35;5.22;;;;;;;20.79;61.93;101407.81;855677;23;1244;-92
2023/09/07 00:12:14;;;;;;;8.97;5.50;;;;;;;20.78;61.83;101403.41;853376;23;1242;-94
2023/09/07 00:12:34;;;;;;;6.80;5.60;;;;;;;20.78;61.96;101403.41;857553;23;1132;-92
2023/09/07 00:12:55;;;;;;;6.30;5.28;;;;;;;20.72;61.83;101406.06;857123;23;1140;-92
2023/09/07 00:13:16;;;;;;;5.77;4.80;;;;;;;20.71;62.04;101393.72;856186;23;1178;-91
2023/09/07 00:13:37;;;;;;;6.25;4.68;;;;;;;20.74;62.09;101406.06;860490;23;1873;-92
2023/09/07 00:13:59;;;;;;;6.73;4.83;;;;;;;20.74;61.85;101406.97;856548;23;1198;-92
2023/09/07 00:14:19;;;;;;;8.85;5.22;;;;;;;20.64;62.11;101394.59;852633;23;1073;-93
2023/09/07 00:14:40;;;;;;;8.48;5.15;;;;;;;20.67;62.07;101397.25;856779;23;1212;-93
2023/09/07 00:15:01;;;;;;;7.63;5.20;;;;;;;20.69;62.03;101409.63;863345;22;1163;-93
2023/09/07 00:15:22;;;;;;;6.80;5.30;;;;;;;20.68;61.87;101413.16;856826;23;1227;-92
2023/09/07 00:15:42;;;;;;;6.72;5.30;;;;;;;20.61;62.17;101397.25;852596;23;1224;-93
2023/09/07 00:16:04;;;;;;;6.63;5.22;;;;;;;20.65;62.18;101401.69;860663;23;1205;-92
2023/09/07 00:16:25;;;;;;;7.13;5.05;;;;;;;20.64;62.08;101399.88;855868;23;1168;-92
2023/09/07 00:16:46;;;;;;;6.77;4.83;;;;;;;20.63;62.00;101398.13;856665;23;1156;-93
2023/09/07 00:17:07;;;;;;;6.72;4.93;;;;;;;20.62;61.92;101401.69;856381;23;1246;-93
2023/09/07 00:17:27;;;;;;;5.57;4.75;;;;;;;20.62;62.03;101399.91;852621;23;1286;-92
2023/09/07 00:17:49;;;;;;;5.50;4.55;;;;;;;20.61;62.11;101405.22;856641;23;1126;-91
2023/09/07 00:18:09;;;;;;;5.63;4.55;;;;;;;20.63;62.22;101408.75;849798;23;1157;-92
2023/09/07 00:18:30;;;;;;;6.18;4.82;;;;;;;20.62;62.30;101412.28;857960;23;1131;-94
2023/09/07 00:18:51;;;;;;;7.20;5.18;;;;;;;20.59;62.32;101397.25;861528;23;1272;-93
2023/09/07 00:19:12;;;;;;;7.72;5.03;;;;;;;20.54;62.22;101394.63;849642;23;1201;-93
2023/09/07 00:19:36;;;;;;;8.30;5.30;;;;;;;20.60;62.21;101403.47;857300;23;1189;-93
2023/09/07 00:19:58;;;;;;;7.20;5.03;;;;;;;20.58;62.15;101403.47;849741;23;1325;-93
2023/09/07 00:20:19;;;;;;;5.25;4.60;;;;;;;20.64;62.14;101408.75;857957;23;1278;-93
2023/09/07 00:20:40;;;;;;;4.97;4.40;;;;;;;20.61;62.39;101408.75;853845;23;1269;-93
2023/09/07 00:21:01;;;;;;;6.65;4.78;;;;;;;20.58;62.23;101403.47;849729;23;1483;-93
2023/09/07 00:21:22;;;;;;;7.30;5.15;;;;;;;20.61;62.31;101407.88;849509;23;1285;-93
2023/09/07 00:21:42;;;;;;;8.37;5.40;;;;;;;20.49;62.21;101384.94;858214;23;1096;-92
2023/09/07 00:22:03;;;;;;;7.18;5.35;;;;;;;20.62;62.28;101404.31;857757;23;1180;-93
2023/09/07 00:22:27;;;;;;;7.85;5.30;;;;;;;20.54;62.17;101399.94;853623;23;1342;-93
2023/09/07 00:22:48;;;;;;;9.50;5.20;;;;;;;20.59;62.24;101407.88;857811;23;1396;-93
2023/09/07 00:23:08;;;;;;;10.18;5.25;;;;;;;20.57;62.26;101404.34;857212;23;1254;-92
2023/09/07 00:23:30;;;;;;;12.40;5.30;;;;;;;20.53;62.36;101398.16;853518;23;1186;-92
2023/09/07 00:23:51;;;;;;;10.95;5.40;;;;;;;20.55;62.36;101406.13;849535;23;1235;-93
2023/09/07 00:24:11;;;;;;;10.77;5.60;;;;;;;20.49;62.58;101399.09;844950;23;1302;-92
2023/09/07 00:24:32;;;;;;;8.80;5.80;;;;;;;20.54;62.30;101410.53;857537;23;1461;-93
2023/09/07 00:24:53;;;;;;;8.27;5.47;;;;;;;20.53;62.37;101405.25;857302;23;1218;-92
2023/09/07 00:25:13;;;;;;;7.72;5.20;;;;;;;20.50;62.20;101399.94;853072;23;1276;-93
2023/09/07 00:25:34;;;;;;;7.40;4.83;;;;;;;20.54;62.57;101405.22;857484;23;1271;-93
2023/09/07 00:25:55;;;;;;;7.15;4.95;;;;;;;20.53;62.37;101416.72;848105;23;1153;-92
2023/09/07 00:26:16;;;;;;;7.28;4.88;;;;;;;20.50;62.58;101403.50;849040;23;1214;-92
2023/09/07 00:26:36;;;;;;;7.00;5.10;;;;;;;20.48;62.56;101401.75;856621;23;1219;-92
2023/09/07 00:26:58;;;;;;;8.02;5.50;;;;;;;20.46;62.36;101396.44;856047;23;1323;-93
2023/09/07 00:27:19;;;;;;;7.90;5.47;;;;;;;20.52;62.20;101412.31;848657;23;1446;-92
2023/09/07 00:27:40;;;;;;;7.57;5.18;;;;;;;20.45;62.67;101399.97;849065;23;1238;-92
2023/09/07 00:28:00;;;;;;;6.60;4.93;;;;;;;20.46;62.59;101400.88;857143;23;1160;-92
2023/09/07 00:28:22;;;;;;;6.97;5.00;;;;;;;20.46;62.61;101404.38;853174;23;1121;-93
2023/09/07 00:28:45;;;;;;;7.72;5.07;;;;;;;20.45;62.52;101399.97;853087;23;1212;-93
2023/09/07 00:29:06;;;;;;;8.35;5.20;;;;;;;20.46;62.59;101406.16;856264;23;1140;-93
2023/09/07 00:29:27;;;;;;;8.73;5.40;;;;;;;20.47;62.66;101403.50;857041;23;1248;-93
2023/09/07 00:29:48;;;;;;;8.05;5.75;;;;;;;20.44;62.73;101405.28;856951;23;1225;-92
2023/09/07 00:30:09;;;;;;;7.60;5.90;;;;;;;20.43;62.69;101403.50;849274;23;1316;-92
2023/09/07 00:30:30;;;;;;;7.97;6.10;;;;;;;20.41;62.79;101403.53;848849;23;1439;-92
2023/09/07 00:30:51;;;;;;;8.20;6.20;;;;;;;20.44;62.75;101402.63;857077;23;1348;-92
2023/09/07 00:31:11;;;;;;;7.72;5.95;;;;;;;20.45;62.78;101404.38;848639;23;1179;-93
2023/09/07 00:31:32;;;;;;;7.45;6.00;;;;;;;20.40;62.86;101402.63;857152;23;1218;-93
2023/09/07 00:31:53;;;;;;;6.93;5.30;;;;;;;20.43;62.88;101404.41;861045;23;1199;-93
2023/09/07 00:32:13;;;;;;;6.57;5.10;;;;;;;20.43;62.96;101400.84;857123;23;1188;-91
2023/09/07 00:32:36;;;;;;;5.95;4.80;;;;;;;20.41;62.83;101400.88;857031;23;1182;-94
2023/09/07 00:32:57;;;;;;;7.60;5.47;;;;;;;20.41;62.96;101403.53;844650;23;1604;-93
2023/09/07 00:33:20;;;;;;;7.38;5.50;;;;;;;20.40;63.13;101407.03;844789;23;1532;-92
2023/09/07 00:33:41;;;;;;;8.30;6.00;;;;;;;20.38;62.95;101398.22;853171;23;1885;-92
2023/09/07 00:34:02;;;;;;;9.45;6.00;;;;;;;20.41;63.11;101400.88;852529;23;1212;-92
2023/09/07 00:34:23;;;;;;;9.23;5.80;;;;;;;20.32;63.00;101385.88;852860;23;1315;-93
2023/09/07 00:34:43;;;;;;;9.85;5.55;;;;;;;20.42;62.96;101405.28;848974;23;1133;-92
2023/09/07 00:35:05;;;;;;;8.25;5.40;;;;;;;20.36;63.14;101400.00;852685;23;1438;-93
2023/09/07 00:35:26;;;;;;;7.78;5.50;;;;;;;20.41;63.12;101408.84;852930;23;1399;-92
2023/09/07 00:35:47;;;;;;;6.10;5.37;;;;;;;20.36;63.15;101406.16;857002;23;1136;-92
2023/09/07 00:36:08;;;;;;;6.03;5.15;;;;;;;20.43;63.08;101411.47;856807;23;1328;-93
2023/09/07 00:36:28;;;;;;;6.90;5.33;;;;;;;20.32;63.10;101398.25;857216;23;1231;-92
2023/09/07 00:36:51;;;;;;;6.53;5.15;;;;;;;20.34;63.33;101402.66;856573;23;1234;-92
2023/09/07 00:37:11;;;;;;;6.65;5.40;;;;;;;20.36;63.10;101410.59;851887;23;1334;-92
2023/09/07 00:37:33;;;;;;;6.10;5.20;;;;;;;20.35;62.95;101408.84;844410;23;1218;-92
2023/09/07 00:37:54;;;;;;;7.80;5.22;;;;;;;20.35;63.00;101411.50;852263;23;1331;-93
2023/09/07 00:38:15;;;;;;;7.80;5.20;;;;;;;20.33;62.92;101405.28;852835;23;1188;-92
2023/09/07 00:38:35;;;;;;;8.00;5.47;;;;;;;20.31;63.04;101407.06;853024;23;1081;-93
2023/09/07 00:38:56;;;;;;;6.90;5.70;;;;;;;20.30;63.05;101405.31;856652;23;1339;-93
2023/09/07 00:39:16;;;;;;;6.88;5.53;;;;;;;20.32;63.31;101408.84;852830;23;1214;-92
2023/09/07 00:39:37;;;;;;;7.03;5.53;;;;;;;20.34;63.07;101407.09;853035;23;1224;-92
2023/09/07 00:39:58;;;;;;;6.88;5.60;;;;;;;20.34;63.08;101404.44;856742;23;1115;-92
2023/09/07 00:40:18;;;;;;;7.18;5.28;;;;;;;20.35;63.22;101414.16;852964;23;1278;-91
2023/09/07 00:40:44;;;;;;;7.78;5.03;;;;;;;20.34;63.13;101415.91;848902;23;1272;-92
2023/09/07 00:41:04;;;;;;;9.95;5.30;;;;;;;20.31;63.09;101407.06;848308;23;1332;-94
2023/09/07 00:41:25;;;;;;;9.95;5.38;;;;;;;20.29;63.10;101404.44;848869;23;1255;-91
2023/09/07 00:41:45;;;;;;;14.43;5.07;;;;;;;20.27;63.12;101407.09;848895;23;1241;-92
2023/09/07 00:42:06;;;;;;;13.43;4.90;;;;;;;20.30;63.06;101406.22;852534;23;1251;-92
2023/09/07 00:42:27;;;;;;;11.48;5.43;;;;;;;20.29;63.11;101412.41;853078;23;1169;-92
2023/09/07 00:42:48;;;;;;;7.75;6.05;;;;;;;20.35;63.13;101419.44;852833;23;1196;-93
2023/09/07 00:43:09;;;;;;;8.03;6.07;;;;;;;20.27;63.19;101400.91;852528;23;1301;-92
2023/09/07 00:43:29;;;;;;;7.85;5.65;;;;;;;20.31;63.20;101412.38;844975;23;1200;-92
2023/09/07 00:43:50;;;;;;;7.70;5.70;;;;;;;20.28;63.16;101406.22;848233;23;1240;-93
2023/09/07 00:44:11;;;;;;;8.53;5.90;;;;;;;20.30;63.38;101405.31;856281;23;1308;-92
2023/09/07 00:44:32;;;;;;;9.52;6.47;;;;;;;20.25;63.22;101400.94;861395;23;1167;-92
2023/09/07 00:44:53;;;;;;;9.00;6.32;;;;;;;20.31;63.13;101407.06;856152;23;1289;-91
2023/09/07 00:45:15;;;;;;;7.68;6.20;;;;;;;20.31;63.47;101412.38;856759;23;1166;-91
2023/09/07 00:45:35;;;;;;;6.90;5.70;;;;;;;20.35;63.31;101414.16;848884;23;1253;-92
2023/09/07 00:45:56;;;;;;;6.80;5.78;;;;;;;20.30;63.59;101405.31;848586;23;1172;-92
2023/09/07 00:46:17;;;;;;;11.33;6.07;;;;;;;20.31;63.40;101404.44;852815;23;1103;-93
2023/09/07 00:46:38;;;;;;;11.35;6.03;;;;;;;20.33;63.61;101405.28;848927;23;1377;-92
2023/09/07 00:46:58;;;;;;;11.65;6.05;;;;;;;20.32;63.62;101415.03;848140;23;1205;-93
2023/09/07 00:47:21;;;;;;;7.68;6.18;;;;;;;20.33;63.63;101410.59;848413;23;1263;-93
2023/09/07 00:47:44;;;;;;;9.50;6.35;;;;;;;20.33;63.53;101406.19;848669;23;1315;-93
2023/09/07 00:48:05;;;;;;;8.80;6.30;;;;;;;20.36;63.67;101411.47;848332;23;1218;-92
2023/09/07 00:48:26;;;;;;;9.43;6.07;;;;;;;20.35;63.76;101411.50;856408;23;1373;-93
2023/09/07 00:48:48;;;;;;;8.02;6.38;;;;;;;20.37;63.80;101420.31;848602;23;1219;-92
2023/09/07 00:49:09;;;;;;;8.88;6.90;;;;;;;20.34;63.70;101410.59;848498;23;1251;-93
2023/09/07 00:49:30;;;;;;;8.17;6.83;;;;;;;20.33;63.86;101400.00;857076;23;1151;-93
2023/09/07 00:49:51;;;;;;;8.45;6.60;;;;;;;20.38;63.67;101409.72;856870;23;1281;-93
2023/09/07 00:50:16;;;;;;;8.77;6.30;;;;;;;20.31;63.57;101396.47;852495;23;1217;-93
2023/09/07 00:50:37;;;;;;;10.57;6.53;;;;;;;20.36;63.68;101415.91;848845;23;1270;-92
2023/09/07 00:50:58;;;;;;;10.38;6.53;;;;;;;20.30;63.68;101405.31;856622;23;1252;-92
2023/09/07 00:51:20;;;;;;;9.20;6.10;;;;;;;20.35;63.63;101411.50;852791;23;1277;-93
2023/09/07 00:51:41;;;;;;;7.03;5.60;;;;;;;20.32;63.41;101408.84;852444;23;1286;-93
2023/09/07 00:52:02;;;;;;;8.57;5.80;;;;;;;20.24;63.59;101392.97;856422;23;1116;-93
2023/09/07 00:52:23;;;;;;;8.02;5.88;;;;;;;20.28;63.62;101403.56;844793;23;1188;-92
2023/09/07 00:52:46;;;;;;;8.05;5.72;;;;;;;20.31;63.62;101413.28;856886;23;1231;-92
2023/09/07 00:53:07;;;;;;;6.85;5.80;;;;;;;20.29;63.62;101407.09;852611;23;1311;-92
2023/09/07 00:53:28;;;;;;;7.85;6.20;;;;;;;20.29;63.47;101409.75;852734;23;1939;-93
2023/09/07 00:53:50;;;;;;;8.35;6.63;;;;;;;20.31;63.63;101412.38;852882;23;1152;-93
2023/09/07 00:54:11;;;;;;;8.75;6.72;;;;;;;20.22;63.58;101397.41;848598;23;1225;-93
2023/09/07 00:54:35;;;;;;;8.50;6.60;;;;;;;20.26;63.63;101410.63;856925;23;1268;-93
2023/09/07 00:54:56;;;;;;;8.07;5.97;;;;;;;20.25;63.46;101400.94;860434;23;1265;-93
2023/09/07 00:55:18;;;;;;;8.13;5.88;;;;;;;20.26;63.39;101405.34;856382;23;1317;-92
2023/09/07 00:55:38;;;;;;;8.07;5.88;;;;;;;20.25;63.49;101408.88;852668;23;1197;-93
2023/09/07 00:56:00;;;;;;;8.40;5.97;;;;;;;20.24;63.54;101400.91;848467;23;1252;-93
2023/09/07 00:56:20;;;;;;;7.90;5.60;;;;;;;20.24;63.54;101407.09;848722;23;1232;-93
2023/09/07 00:56:41;;;;;;;7.22;5.50;;;;;;;20.22;63.43;101408.88;860678;23;1185;-93
2023/09/07 00:57:02;;;;;;;7.78;5.47;;;;;;;20.24;63.47;101403.56;856681;23;1134;-93
2023/09/07 00:57:24;;;;;;;8.73;6.03;;;;;;;20.24;63.48;101403.56;852936;23;1135;-94
2023/09/07 00:57:45;;;;;;;9.90;6.20;;;;;;;20.24;63.52;101408.88;852827;23;1160;-92
2023/09/07 00:58:06;;;;;;;8.80;6.00;;;;;;;20.17;63.41;101393.88;856692;23;1396;-92
2023/09/07 00:58:27;;;;;;;7.03;5.55;;;;;;;20.16;63.51;101398.28;852820;23;1340;-93
2023/09/07 00:58:49;;;;;;;6.35;5.20;;;;;;;20.13;63.58;101401.84;852325;23;1279;-92
2023/09/07 00:59:11;;;;;;;7.47;5.50;;;;;;;20.17;63.60;101400.06;848116;23;1284;-92
2023/09/07 00:59:33;;;;;;;10.13;5.63;;;;;;;20.17;63.64;101415.97;848355;23;1444;-92
2023/09/07 00:59:54;;;;;;;9.60;5.60;;;;;;;20.11;63.58;101400.06;851850;23;1355;-93
2023/09/07 01:00:15;;;;;;;7.68;5.43;;;;;;;20.06;63.68;101396.53;852751;23;1308;-92
2023/09/07 01:00:36;;;;;;;8.70;5.22;;;;;;;20.08;63.81;101406.25;848741;23;1318;-93
2023/09/07 01:00:57;;;;;;;8.32;5.15;;;;;;;20.10;63.75;101414.22;848368;23;1163;-93
2023/09/07 01:01:18;;;;;;;7.20;5.03;;;;;;;19.97;63.85;101381.53;856944;23;1343;-92
2023/09/07 01:05:40;;;;;;;7.80;5.53;;;;;;;20.03;63.67;101404.50;871414;22;647;-93
2023/09/07 01:06:01;;;;;;;9.10;6.63;;;;;;;20.05;63.70;101414.22;861364;23;1314;-92
2023/09/07 01:06:39;;;;;;;8.88;7.00;;;;;;;19.98;64.08;101400.06;856343;22;1191;-92
2023/09/07 01:07:13;;;;;;;8.15;6.10;;;;;;;19.94;63.82;101392.13;858149;23;1416;-93
2023/09/07 01:07:43;;;;;;;9.10;5.00;;;;;;;20.04;63.97;101408.91;861263;23;1183;-92
2023/09/07 01:08:11;;;;;;;7.95;4.97;;;;;;;19.94;63.83;101403.63;848649;23;1324;-93
2023/09/07 01:08:38;;;;;;;9.43;5.57;;;;;;;19.95;64.01;101396.53;848785;23;1387;-93
2023/09/07 01:09:07;;;;;;;9.63;5.50;;;;;;;19.99;63.98;101401.84;848285;23;1315;-92
2023/09/07 01:09:32;;;;;;;11.57;5.45;;;;;;;19.94;63.87;101398.34;852971;23;1307;-94
2023/09/07 01:09:57;;;;;;;18.10;5.70;;;;;;;19.99;64.03;101395.66;848582;23;1286;-93
2023/09/07 01:10:18;;;;;;;16.33;5.97;;;;;;;19.98;63.80;101409.81;848674;23;1229;-92
2023/09/07 01:10:40;;;;;;;9.10;5.88;;;;;;;19.95;63.83;101402.75;852899;23;1363;-92
2023/09/07 01:11:55;;;;;;;8.13;5.35;;;;;;;19.92;64.01;101410.66;855782;23;1187;-93
2023/09/07 01:12:34;;;;;;;8.13;5.55;;;;;;;19.90;63.94;101401.84;855454;23;667;-93
2023/09/07 01:12:55;;;;;;;6.45;5.43;;;;;;;19.86;64.09;101400.06;855081;23;1286;-93
2023/09/07 01:13:16;;;;;;;6.88;6.03;;;;;;;19.77;64.02;101387.72;852718;23;1208;-92
2023/09/07 01:13:36;;;;;;;7.30;6.10;;;;;;;19.87;64.22;101393.88;852928;23;1952;-92
2023/09/07 01:13:58;;;;;;;7.63;6.38;;;;;;;19.87;64.22;101393.88;856897;23;1242;-92
2023/09/07 01:14:18;;;;;;;7.25;6.00;;;;;;;19.81;64.20;101391.25;852768;23;1217;-92
2023/09/07 01:14:39;;;;;;;7.35;6.13;;;;;;;19.92;64.05;101402.72;852913;23;1054;-93
2023/09/07 01:15:01;;;;;;;6.70;6.00;;;;;;;19.93;64.14;101407.16;856616;23;1363;-92
2023/09/07 01:15:22;;;;;;;6.60;5.97;;;;;;;19.87;64.10;101407.13;857045;23;1408;-92
2023/09/07 01:15:43;;;;;;;7.68;6.53;;;;;;;19.87;64.24;101404.47;856806;23;1211;-92
2023/09/07 01:16:05;;;;;;;10.20;7.43;;;;;;;19.81;64.35;101399.19;852231;23;1194;-93
2023/09/07 01:16:27;;;;;;;9.45;7.10;;;;;;;19.81;64.49;101408.03;851998;23;1278;-92
2023/09/07 01:16:49;;;;;;;9.07;6.47;;;;;;;19.80;64.59;101400.06;852628;23;1262;-92
2023/09/07 01:17:13;;;;;;;8.90;6.68;;;;;;;19.77;64.49;101394.75;852627;23;1123;-92
2023/09/07 01:17:35;;;;;;;9.45;6.80;;;;;;;19.91;64.42;101406.25;853032;23;1254;-93
2023/09/07 01:17:58;;;;;;;9.43;6.57;;;;;;;19.81;64.37;101391.25;852166;23;1350;-93
2023/09/07 01:18:19;;;;;;;10.15;7.00;;;;;;;19.87;64.18;101400.06;852705;23;1221;-93
2023/09/07 01:18:41;;;;;;;9.63;6.95;;;;;;;19.88;64.21;101395.69;848861;23;1327;-92
2023/09/07 01:19:05;;;;;;;9.75;7.07;;;;;;;19.92;64.32;101399.22;852630;23;1223;-93
2023/09/07 01:19:26;;;;;;;8.27;6.40;;;;;;;19.80;64.14;101384.19;848804;23;1348;-92
2023/09/07 01:19:51;;;;;;;7.13;6.20;;;;;;;19.95;64.25;101412.44;848518;23;1304;-92
2023/09/07 01:20:16;;;;;;;7.90;6.20;;;;;;;19.89;64.23;101399.19;861082;23;1287;-93
2023/09/07 01:20:40;;;;;;;8.63;6.45;;;;;;;19.88;64.21;101400.97;853168;23;1281;-93
2023/09/07 01:21:03;;;;;;;9.48;6.60;;;;;;;19.89;64.16;101402.75;844437;23;1248;-92
2023/09/07 01:21:24;;;;;;;8.32;6.25;;;;;;;19.86;64.16;101394.78;848936;23;1371;-93
2023/09/07 01:21:46;;;;;;;8.48;6.60;;;;;;;19.87;64.27;101394.75;848657;23;1168;-93
2023/09/07 01:22:09;;;;;;;8.32;6.97;;;;;;;19.90;64.31;101399.19;852538;23;1196;-92
2023/09/07 01:22:30;;;;;;;9.48;7.03;;;;;;;19.85;64.14;101393.88;844946;23;1307;-92
2023/09/07 01:22:51;;;;;;;10.98;7.00;;;;;;;19.81;64.27;101388.59;844563;23;1332;-93
2023/09/07 01:23:13;;;;;;;16.38;7.60;;;;;;;19.85;64.39;101398.28;848354;23;1115;-93
2023/09/07 01:23:37;;;;;;;15.43;7.72;;;;;;;19.84;64.20;101391.22;848550;23;1381;-93
2023/09/07 01:23:59;;;;;;;8.55;7.25;;;;;;;19.81;64.31;101391.25;852477;23;1441;-92
2023/09/07 01:24:22;;;;;;;7.43;6.60;;;;;;;19.80;64.30;101394.78;847905;23;1256;-92
2023/09/07 01:24:45;;;;;;;7.80;6.68;;;;;;;19.80;64.63;101389.47;848559;23;1289;-92
2023/09/07 01:25:07;;;;;;;8.23;7.00;;;;;;;19.82;64.43;101387.69;856643;23;1290;-93
2023/09/07 01:25:28;;;;;;;7.65;6.85;;;;;;;19.81;64.41;101394.78;852872;23;1319;-91
2023/09/07 01:25:51;;;;;;;7.83;6.40;;;;;;;19.74;64.34;101385.06;852741;23;1199;-93
2023/09/07 01:26:12;;;;;;;7.72;6.38;;;;;;;19.75;64.53;101388.59;851870;23;1395;-93
2023/09/07 01:26:33;;;;;;;9.90;6.82;;;;;;;19.65;64.69;101378.00;858687;23;680;-93
2023/09/07 01:26:54;;;;;;;9.88;7.00;;;;;;;19.66;64.80;101386.84;860757;23;1285;-93
2023/09/07 01:27:14;;;;;;;10.25;7.10;;;;;;;19.64;64.78;101384.19;857007;23;1202;-92
2023/09/07 01:27:35;;;;;;;8.90;7.40;;;;;;;19.70;64.89;101397.44;848782;23;1219;-93
2023/09/07 01:27:56;;;;;;;9.32;7.47;;;;;;;19.62;64.88;101375.38;851661;23;1202;-92
2023/09/07 01:28:17;;;;;;;10.93;7.40;;;;;;;19.67;65.04;101389.47;852685;23;1187;-92
2023/09/07 01:28:38;;;;;;;11.45;7.53;;;;;;;19.68;65.17;101385.94;851706;23;1256;-93
2023/09/07 01:29:00;;;;;;;11.38;7.70;;;;;;;19.65;65.19;101377.09;852603;23;1226;-91
2023/09/07 01:29:21;;;;;;;8.10;7.03;;;;;;;19.71;65.03;101393.00;857068;23;1194;-93
2023/09/07 01:29:42;;;;;;;7.68;6.88;;;;;;;19.71;65.20;101385.94;852709;23;1382;-92
2023/09/07 01:30:03;;;;;;;7.13;6.40;;;;;;;19.70;65.14;101384.19;848279;23;1225;-92
2023/09/07 01:30:27;;;;;;;7.80;6.60;;;;;;;19.61;65.09;101373.56;852762;23;1211;-93
2023/09/07 01:30:48;;;;;;;8.13;6.53;;;;;;;19.75;65.16;101391.22;848731;23;1180;-94
2023/09/07 01:31:09;;;;;;;7.53;6.50;;;;;;;19.70;65.16;101378.91;852526;23;1227;-92
2023/09/07 01:31:30;;;;;;;8.43;6.60;;;;;;;19.73;64.81;101394.78;857214;23;1295;-93
2023/09/07 01:31:50;;;;;;;8.30;6.53;;;;;;;19.71;65.11;101393.91;856584;23;1201;-92
2023/09/07 01:32:11;;;;;;;7.93;6.35;;;;;;;19.64;65.08;101383.28;852576;23;1316;-93
2023/09/07 01:32:32;;;;;;;7.75;6.05;;;;;;;19.65;65.21;101378.00;853079;23;1112;-92
2023/09/07 01:32:52;;;;;;;8.05;6.38;;;;;;;19.67;65.09;101386.81;851695;23;1314;-92
2023/09/07 01:33:14;;;;;;;8.88;6.57;;;;;;;19.66;65.06;101379.75;856481;23;1350;-93
2023/09/07 01:33:35;;;;;;;11.57;6.82;;;;;;;19.69;65.04;101390.38;848674;23;1905;-92
2023/09/07 01:33:55;;;;;;;12.70;6.93;;;;;;;19.70;64.76;101370.06;852032;23;1196;-92
2023/09/07 01:34:16;;;;;;;12.37;6.87;;;;;;;19.78;64.91;101391.25;856828;23;1214;-93
2023/09/07 01:34:37;;;;;;;10.50;6.65;;;;;;;19.74;64.39;101385.06;855990;23;1174;-92
2023/09/07 01:34:59;;;;;;;9.68;6.70;;;;;;;19.75;64.65;101388.59;856663;23;1250;-94
2023/09/07 01:35:21;;;;;;;10.07;7.00;;;;;;;19.70;64.77;101386.84;848691;23;1234;-93
2023/09/07 01:35:43;;;;;;;8.55;7.50;;;;;;;19.76;64.73;101387.69;852726;23;1353;-92
2023/09/07 01:36:05;;;;;;;9.30;7.70;;;;;;;19.76;64.76;101398.28;852424;23;1252;-92
2023/09/07 01:36:26;;;;;;;8.40;7.28;;;;;;;19.69;64.66;101381.53;852191;23;1370;-93
2023/09/07 01:36:47;;;;;;;7.82;6.60;;;;;;;19.73;64.61;101389.47;852835;23;1171;-94
2023/09/07 01:37:07;;;;;;;7.35;6.50;;;;;;;19.67;64.65;101384.16;852404;23;1235;-92
2023/09/07 01:37:28;;;;;;;7.78;6.53;;;;;;;19.70;64.51;101378.00;852859;23;1041;-92
2023/09/07 01:37:49;;;;;;;8.65;6.80;;;;;;;19.69;64.54;101374.50;855306;23;1323;-92
2023/09/07 01:38:10;;;;;;;9.80;6.85;;;;;;;19.68;64.47;101385.06;847490;23;1107;-92
2023/09/07 01:38:31;;;;;;;8.93;6.67;;;;;;;19.69;64.52;101384.19;856869;23;1240;-94
2023/09/07 01:38:52;;;;;;;8.63;7.00;;;;;;;19.71;64.64;101388.59;852700;23;1120;-92
2023/09/07 01:39:12;;;;;;;7.63;6.82;;;;;;;19.71;64.57;101380.66;856673;23;1167;-93
2023/09/07 01:39:33;;;;;;;8.60;7.20;;;;;;;19.67;64.56;101383.31;857109;23;1226;-92
2023/09/07 01:39:54;;;;;;;8.55;7.10;;;;;;;19.70;64.58;101388.59;848464;23;1307;-92
2023/09/07 01:40:15;;;;;;;9.10;7.40;;;;;;;19.68;64.49;101385.94;848565;23;1233;-92
2023/09/07 01:40:36;;;;;;;10.00;7.27;;;;;;;19.67;64.49;101375.38;848640;23;1285;-91
2023/09/07 01:40:56;;;;;;;9.55;7.38;;;;;;;19.64;64.74;101378.88;852112;23;1192;-92
2023/09/07 01:41:17;;;;;;;9.65;7.25;;;;;;;19.66;64.58;101389.50;848691;23;1167;-92
2023/09/07 01:41:38;;;;;;;8.75;7.07;;;;;;;19.68;64.62;101387.72;852852;23;1244;-92
2023/09/07 01:41:59;;;;;;;8.80;6.73;;;;;;;19.67;64.76;101384.16;844270;23;1314;-93
2023/09/07 01:42:21;;;;;;;8.38;6.72;;;;;;;19.64;64.50;101384.19;856680;23;1261;-92
2023/09/07 01:42:42;;;;;;;8.50;6.70;;;;;;;19.67;64.64;101384.16;852697;23;1257;-91
2023/09/07 01:43:03;;;;;;;7.70;6.38;;;;;;;19.68;64.38;101390.38;848035;23;1410;-94
2023/09/07 01:43:24;;;;;;;8.02;6.65;;;;;;;19.60;64.72;101390.34;848431;23;1140;-92
2023/09/07 01:43:45;;;;;;;7.50;6.70;;;;;;;19.53;64.68;101385.94;852614;23;1186;-92
2023/09/07 01:44:05;;;;;;;8.97;6.70;;;;;;;19.58;64.81;101384.19;852505;22;1324;-93
2023/09/07 01:44:26;;;;;;;8.27;6.65;;;;;;;19.55;64.75;101382.41;861340;23;1251;-92
2023/09/07 01:44:47;;;;;;;9.63;6.70;;;;;;;19.62;64.78;101390.34;860623;23;1264;-92
2023/09/07 01:45:08;;;;;;;8.60;6.97;;;;;;;19.54;64.65;101371.84;865058;22;1131;-92
2023/09/07 01:45:29;;;;;;;8.43;6.60;;;;;;;19.59;64.61;101386.84;852587;23;1207;-92
2023/09/07 01:45:50;;;;;;;7.85;6.70;;;;;;;19.53;64.56;101380.63;856763;23;1160;-93
2023/09/07 01:46:11;;;;;;;8.35;6.75;;;;;;;19.57;64.64;101388.59;856432;23;1361;-93
2023/09/07 01:46:31;;;;;;;9.83;7.57;;;;;;;19.53;64.85;101383.28;848739;23;1245;-92
2023/09/07 01:46:52;;;;;;;9.02;7.60;;;;;;;19.51;64.89;101377.13;856595;23;1222;-91
2023/09/07 01:47:13;;;;;;;8.82;7.55;;;;;;;19.48;65.03;101382.41;860820;23;1269;-93
2023/09/07 01:47:34;;;;;;;9.10;7.40;;;;;;;19.48;65.11;101385.06;852950;23;1165;-92